Portada
METAR-TAF:

METAR-TAF

Aeropuertos :

Somerset-Pulaski County Airport (J.T. Wilson Field)

Somerset, Kentucky, Estados Unidos

latitud: 37-03-15N, longitud: 084-36-54W, altitud: 283 m

Observación

El informe se hizo hace 23 minutos, a las 19:55 UTC
Viento 4 kt con dirección variable
Temperatura 30°C
Humedad 59%
Presión 1025 hPa
Visibilidad: 16.1 km
Cielo despejado

METAR: KSME 191955Z AUTO VRB04KT 10SM CLR 30/21 A3026 RMK AO2

Hora: 16:18 (20:18 UTC)

Pronóstico

El informe se hizo hace 2 horas y 58 minutos, a las 17:20 UTC
Pronóstico válido del 19 a las 18 UTC al 20 a las 18 UTC
Viento 4 kt del sureste
Visibilidad: 10 km
Escasas nubes a una altura de 6000 ft
Cielo nuboso a una altura de 25000 ft
A partir de las 20 a las 0200 UTC
Viento kt del norte
Visibilidad: 10 km
Escasas nubes a una altura de 25000 ft

TAF: KSME 191720Z 1918/2018 13004KT P6SM FEW060 BKN250 FM200200 00000KT P6SM FEW250

Observaciones y pronósticos meteorológicos de más de 4000 aeropuertos (mensajes METAR y TAF).

Los puntos amarillos y rojos representan las estaciones disponibles.

Ponga el ratón en el punto deseado para ver el nombre de la estación.

Haga clic para ver las observaciones y los pronósticos meteorológicos.

Para cambiar el mapa : haga clic en los botones verdes con una cruz de color negro para hacer un zoom, en el botón verde con un guión para alejar o en las flechas verdes para mapas adyacentes.


METAR-TAF: